Ust'-Ilimsk, Russia
Current Conditions -  °F | °C
As of 5:00 AM on Thursday 27 Nov 2014 (Local Time) from UIBB Reporting Station
Broken Clouds Broken Clouds  
Wind Chill: -4°   Ceiling: 20000
Heat Index: -4°   Visibility: 3mi
Dew Point: -9°   Wind: 0mph
Humidity: 78%   Direction: NA
Pressure: 29.74"   Gusts: NA
Location:  58°N, 102.66°E
Report Text: UIBB 262100Z 00000MPS P5000 SCT040CB BKN200 M20/M23 Q1007 NOSIGRMK QFE712/0950 30450240
Loading
Personal Weather Stations






























Interactive Weather Map New forecast layout! Learn more

10-Day Weather Forecast

Advertisements
Track Severe Weather on mobile